sensor_id;sensor_type;location;lat;lon;timestamp;P1;durP1;ratioP1;P2;durP2;ratioP2
11241;SDS011;5678;52.370;9.006;2022-08-21T00:00:35;0.20;;;0.20;;
11241;SDS011;5678;52.370;9.006;2022-08-21T00:03:09;0.20;;;0.20;;
11241;SDS011;5678;52.370;9.006;2022-08-21T00:05:41;0.30;;;0.30;;
11241;SDS011;5678;52.370;9.006;2022-08-21T00:08:11;0.20;;;0.20;;
11241;SDS011;5678;52.370;9.006;2022-08-21T00:10:39;0.20;;;0.20;;
11241;SDS011;5678;52.370;9.006;2022-08-21T00:13:08;0.20;;;0.20;;
11241;SDS011;5678;52.370;9.006;2022-08-21T00:15:37;0.20;;;0.20;;
11241;SDS011;5678;52.370;9.006;2022-08-21T00:18:08;0.20;;;0.20;;
11241;SDS011;5678;52.370;9.006;2022-08-21T00:20:38;0.40;;;0.40;;
11241;SDS011;5678;52.370;9.006;2022-08-21T00:23:07;0.27;;;0.27;;
11241;SDS011;5678;52.370;9.006;2022-08-21T00:25:37;0.20;;;0.20;;
11241;SDS011;5678;52.370;9.006;2022-08-21T00:28:05;0.30;;;0.30;;
11241;SDS011;5678;52.370;9.006;2022-08-21T00:30:34;0.40;;;0.40;;
11241;SDS011;5678;52.370;9.006;2022-08-21T00:33:02;0.30;;;0.30;;
11241;SDS011;5678;52.370;9.006;2022-08-21T00:35:33;0.30;;;0.30;;
11241;SDS011;5678;52.370;9.006;2022-08-21T00:38:02;0.20;;;0.20;;
11241;SDS011;5678;52.370;9.006;2022-08-21T00:40:31;0.30;;;0.30;;
11241;SDS011;5678;52.370;9.006;2022-08-21T00:43:02;0.30;;;0.30;;
11241;SDS011;5678;52.370;9.006;2022-08-21T00:45:33;0.20;;;0.20;;
11241;SDS011;5678;52.370;9.006;2022-08-21T00:48:01;0.30;;;0.30;;
11241;SDS011;5678;52.370;9.006;2022-08-21T00:50:31;0.30;;;0.30;;
11241;SDS011;5678;52.370;9.006;2022-08-21T00:53:02;0.20;;;0.20;;
11241;SDS011;5678;52.370;9.006;2022-08-21T00:55:32;0.20;;;0.20;;
11241;SDS011;5678;52.370;9.006;2022-08-21T00:58:06;0.30;;;0.30;;
11241;SDS011;5678;52.370;9.006;2022-08-21T01:00:38;0.33;;;0.33;;
11241;SDS011;5678;52.370;9.006;2022-08-21T01:03:10;0.30;;;0.30;;
11241;SDS011;5678;52.370;9.006;2022-08-21T01:05:40;0.30;;;0.30;;
11241;SDS011;5678;52.370;9.006;2022-08-21T01:08:09;0.30;;;0.30;;
11241;SDS011;5678;52.370;9.006;2022-08-21T01:10:39;0.30;;;0.30;;
11241;SDS011;5678;52.370;9.006;2022-08-21T01:13:09;0.30;;;0.30;;
11241;SDS011;5678;52.370;9.006;2022-08-21T01:15:40;0.30;;;0.30;;
11241;SDS011;5678;52.370;9.006;2022-08-21T01:18:12;0.30;;;0.30;;
11241;SDS011;5678;52.370;9.006;2022-08-21T01:20:43;0.30;;;0.30;;
11241;SDS011;5678;52.370;9.006;2022-08-21T01:23:17;0.20;;;0.20;;
11241;SDS011;5678;52.370;9.006;2022-08-21T01:25:45;0.30;;;0.30;;
11241;SDS011;5678;52.370;9.006;2022-08-21T01:28:13;0.23;;;0.23;;
11241;SDS011;5678;52.370;9.006;2022-08-21T01:30:42;0.30;;;0.30;;
11241;SDS011;5678;52.370;9.006;2022-08-21T01:33:11;0.40;;;0.40;;
11241;SDS011;5678;52.370;9.006;2022-08-21T01:35:39;0.30;;;0.30;;
11241;SDS011;5678;52.370;9.006;2022-08-21T01:38:07;0.20;;;0.20;;
11241;SDS011;5678;52.370;9.006;2022-08-21T01:40:36;0.27;;;0.27;;
11241;SDS011;5678;52.370;9.006;2022-08-21T01:43:05;0.30;;;0.30;;
11241;SDS011;5678;52.370;9.006;2022-08-21T01:45:33;0.20;;;0.20;;
11241;SDS011;5678;52.370;9.006;2022-08-21T01:48:01;0.20;;;0.20;;
11241;SDS011;5678;52.370;9.006;2022-08-21T01:50:29;0.20;;;0.20;;
11241;SDS011;5678;52.370;9.006;2022-08-21T01:52:57;0.30;;;0.30;;
11241;SDS011;5678;52.370;9.006;2022-08-21T01:55:25;0.20;;;0.20;;
11241;SDS011;5678;52.370;9.006;2022-08-21T01:57:55;0.30;;;0.30;;
11241;SDS011;5678;52.370;9.006;2022-08-21T02:00:24;0.30;;;0.30;;
11241;SDS011;5678;52.370;9.006;2022-08-21T02:02:53;0.20;;;0.20;;
11241;SDS011;5678;52.370;9.006;2022-08-21T02:05:23;0.20;;;0.20;;
11241;SDS011;5678;52.370;9.006;2022-08-21T02:07:51;0.20;;;0.20;;
11241;SDS011;5678;52.370;9.006;2022-08-21T02:10:22;0.30;;;0.30;;
11241;SDS011;5678;52.370;9.006;2022-08-21T02:12:52;0.40;;;0.40;;
11241;SDS011;5678;52.370;9.006;2022-08-21T02:15:21;0.30;;;0.30;;
11241;SDS011;5678;52.370;9.006;2022-08-21T02:17:50;0.30;;;0.30;;
11241;SDS011;5678;52.370;9.006;2022-08-21T02:20:20;0.30;;;0.30;;
11241;SDS011;5678;52.370;9.006;2022-08-21T02:22:50;0.30;;;0.30;;
11241;SDS011;5678;52.370;9.006;2022-08-21T02:25:18;0.30;;;0.30;;
11241;SDS011;5678;52.370;9.006;2022-08-21T02:27:47;0.30;;;0.30;;
11241;SDS011;5678;52.370;9.006;2022-08-21T02:30:17;0.33;;;0.33;;
11241;SDS011;5678;52.370;9.006;2022-08-21T02:32:48;0.30;;;0.30;;
11241;SDS011;5678;52.370;9.006;2022-08-21T02:35:16;0.20;;;0.20;;
11241;SDS011;5678;52.370;9.006;2022-08-21T02:37:46;0.20;;;0.20;;
11241;SDS011;5678;52.370;9.006;2022-08-21T02:40:17;0.20;;;0.20;;
11241;SDS011;5678;52.370;9.006;2022-08-21T02:42:47;0.30;;;0.30;;
11241;SDS011;5678;52.370;9.006;2022-08-21T02:45:16;0.20;;;0.20;;
11241;SDS011;5678;52.370;9.006;2022-08-21T02:47:48;0.30;;;0.30;;
11241;SDS011;5678;52.370;9.006;2022-08-21T02:50:17;0.30;;;0.30;;
11241;SDS011;5678;52.370;9.006;2022-08-21T02:52:47;0.20;;;0.20;;
11241;SDS011;5678;52.370;9.006;2022-08-21T02:55:20;0.30;;;0.30;;
11241;SDS011;5678;52.370;9.006;2022-08-21T02:57:49;0.30;;;0.30;;
11241;SDS011;5678;52.370;9.006;2022-08-21T03:00:17;0.30;;;0.30;;
11241;SDS011;5678;52.370;9.006;2022-08-21T03:02:48;0.30;;;0.30;;
11241;SDS011;5678;52.370;9.006;2022-08-21T03:05:16;0.20;;;0.20;;
11241;SDS011;5678;52.370;9.006;2022-08-21T03:07:45;0.20;;;0.20;;
11241;SDS011;5678;52.370;9.006;2022-08-21T03:10:14;0.20;;;0.20;;
11241;SDS011;5678;52.370;9.006;2022-08-21T03:12:43;0.20;;;0.20;;
11241;SDS011;5678;52.370;9.006;2022-08-21T03:15:12;0.30;;;0.30;;
11241;SDS011;5678;52.370;9.006;2022-08-21T03:17:43;0.30;;;0.30;;
11241;SDS011;5678;52.370;9.006;2022-08-21T03:20:14;0.27;;;0.27;;
11241;SDS011;5678;52.370;9.006;2022-08-21T03:22:43;0.27;;;0.27;;
11241;SDS011;5678;52.370;9.006;2022-08-21T03:25:18;0.20;;;0.20;;
11241;SDS011;5678;52.370;9.006;2022-08-21T03:28:07;0.30;;;0.30;;
11241;SDS011;5678;52.370;9.006;2022-08-21T03:30:39;0.20;;;0.20;;
11241;SDS011;5678;52.370;9.006;2022-08-21T03:33:07;0.20;;;0.20;;
11241;SDS011;5678;52.370;9.006;2022-08-21T03:35:39;0.20;;;0.20;;
11241;SDS011;5678;52.370;9.006;2022-08-21T03:38:08;0.20;;;0.20;;
11241;SDS011;5678;52.370;9.006;2022-08-21T03:40:38;0.20;;;0.20;;
11241;SDS011;5678;52.370;9.006;2022-08-21T03:43:06;0.30;;;0.30;;
11241;SDS011;5678;52.370;9.006;2022-08-21T03:45:36;0.30;;;0.30;;
11241;SDS011;5678;52.370;9.006;2022-08-21T03:48:06;0.20;;;0.20;;
11241;SDS011;5678;52.370;9.006;2022-08-21T03:50:37;0.20;;;0.20;;
11241;SDS011;5678;52.370;9.006;2022-08-21T03:53:09;0.20;;;0.20;;
11241;SDS011;5678;52.370;9.006;2022-08-21T03:55:43;0.20;;;0.20;;
11241;SDS011;5678;52.370;9.006;2022-08-21T03:58:11;0.20;;;0.20;;
11241;SDS011;5678;52.370;9.006;2022-08-21T04:00:41;0.20;;;0.20;;
11241;SDS011;5678;52.370;9.006;2022-08-21T04:03:09;0.20;;;0.20;;
11241;SDS011;5678;52.370;9.006;2022-08-21T04:05:37;0.30;;;0.30;;
11241;SDS011;5678;52.370;9.006;2022-08-21T04:08:07;0.30;;;0.30;;
11241;SDS011;5678;52.370;9.006;2022-08-21T04:10:36;0.30;;;0.30;;
11241;SDS011;5678;52.370;9.006;2022-08-21T04:13:06;0.30;;;0.30;;
11241;SDS011;5678;52.370;9.006;2022-08-21T04:15:35;0.27;;;0.27;;
11241;SDS011;5678;52.370;9.006;2022-08-21T04:18:03;0.30;;;0.30;;
11241;SDS011;5678;52.370;9.006;2022-08-21T04:20:32;0.30;;;0.30;;
11241;SDS011;5678;52.370;9.006;2022-08-21T04:23:02;0.23;;;0.23;;
11241;SDS011;5678;52.370;9.006;2022-08-21T04:25:31;0.20;;;0.20;;
11241;SDS011;5678;52.370;9.006;2022-08-21T04:27:59;0.20;;;0.20;;
11241;SDS011;5678;52.370;9.006;2022-08-21T04:30:27;0.20;;;0.20;;
11241;SDS011;5678;52.370;9.006;2022-08-21T04:32:56;0.30;;;0.30;;
11241;SDS011;5678;52.370;9.006;2022-08-21T04:35:25;0.30;;;0.30;;
11241;SDS011;5678;52.370;9.006;2022-08-21T04:37:55;0.30;;;0.30;;
11241;SDS011;5678;52.370;9.006;2022-08-21T04:40:26;0.20;;;0.20;;
11241;SDS011;5678;52.370;9.006;2022-08-21T04:42:56;0.30;;;0.30;;
11241;SDS011;5678;52.370;9.006;2022-08-21T04:45:26;0.20;;;0.20;;
11241;SDS011;5678;52.370;9.006;2022-08-21T04:47:56;0.20;;;0.20;;
11241;SDS011;5678;52.370;9.006;2022-08-21T04:50:26;0.30;;;0.30;;
11241;SDS011;5678;52.370;9.006;2022-08-21T04:52:57;0.20;;;0.20;;
11241;SDS011;5678;52.370;9.006;2022-08-21T04:55:28;0.23;;;0.23;;
11241;SDS011;5678;52.370;9.006;2022-08-21T04:57:56;0.30;;;0.30;;
11241;SDS011;5678;52.370;9.006;2022-08-21T05:00:24;0.30;;;0.30;;
11241;SDS011;5678;52.370;9.006;2022-08-21T05:02:53;0.20;;;0.20;;
11241;SDS011;5678;52.370;9.006;2022-08-21T05:05:25;0.30;;;0.30;;
11241;SDS011;5678;52.370;9.006;2022-08-21T05:07:55;0.20;;;0.20;;
11241;SDS011;5678;52.370;9.006;2022-08-21T05:10:25;0.30;;;0.30;;
11241;SDS011;5678;52.370;9.006;2022-08-21T05:12:55;0.20;;;0.20;;
11241;SDS011;5678;52.370;9.006;2022-08-21T05:15:23;0.30;;;0.30;;
11241;SDS011;5678;52.370;9.006;2022-08-21T05:17:51;0.20;;;0.20;;
11241;SDS011;5678;52.370;9.006;2022-08-21T05:20:26;0.30;;;0.30;;
11241;SDS011;5678;52.370;9.006;2022-08-21T05:22:54;0.10;;;0.10;;
11241;SDS011;5678;52.370;9.006;2022-08-21T05:25:24;0.20;;;0.20;;
11241;SDS011;5678;52.370;9.006;2022-08-21T05:27:54;0.20;;;0.20;;
11241;SDS011;5678;52.370;9.006;2022-08-21T05:30:26;0.27;;;0.27;;
11241;SDS011;5678;52.370;9.006;2022-08-21T05:32:55;0.20;;;0.20;;
11241;SDS011;5678;52.370;9.006;2022-08-21T05:35:25;0.20;;;0.20;;
11241;SDS011;5678;52.370;9.006;2022-08-21T05:37:54;0.20;;;0.20;;
11241;SDS011;5678;52.370;9.006;2022-08-21T05:40:23;0.20;;;0.20;;
11241;SDS011;5678;52.370;9.006;2022-08-21T05:42:51;0.20;;;0.20;;
11241;SDS011;5678;52.370;9.006;2022-08-21T05:45:22;0.20;;;0.20;;
11241;SDS011;5678;52.370;9.006;2022-08-21T05:48:09;0.20;;;0.20;;
11241;SDS011;5678;52.370;9.006;2022-08-21T05:50:38;0.20;;;0.20;;
11241;SDS011;5678;52.370;9.006;2022-08-21T05:53:07;0.20;;;0.20;;
11241;SDS011;5678;52.370;9.006;2022-08-21T05:55:36;0.30;;;0.30;;
11241;SDS011;5678;52.370;9.006;2022-08-21T05:58:11;0.20;;;0.20;;
11241;SDS011;5678;52.370;9.006;2022-08-21T06:00:40;0.23;;;0.23;;
11241;SDS011;5678;52.370;9.006;2022-08-21T06:03:13;0.20;;;0.20;;
11241;SDS011;5678;52.370;9.006;2022-08-21T06:05:44;0.20;;;0.20;;
11241;SDS011;5678;52.370;9.006;2022-08-21T06:08:12;0.30;;;0.30;;
11241;SDS011;5678;52.370;9.006;2022-08-21T06:10:40;0.33;;;0.33;;
11241;SDS011;5678;52.370;9.006;2022-08-21T06:13:08;0.20;;;0.20;;
11241;SDS011;5678;52.370;9.006;2022-08-21T06:15:38;0.27;;;0.27;;
11241;SDS011;5678;52.370;9.006;2022-08-21T06:18:10;0.30;;;0.30;;
11241;SDS011;5678;52.370;9.006;2022-08-21T06:20:38;0.33;;;0.33;;
11241;SDS011;5678;52.370;9.006;2022-08-21T06:23:07;0.20;;;0.20;;
11241;SDS011;5678;52.370;9.006;2022-08-21T06:25:35;0.30;;;0.30;;
11241;SDS011;5678;52.370;9.006;2022-08-21T06:28:04;0.20;;;0.20;;
11241;SDS011;5678;52.370;9.006;2022-08-21T06:30:34;0.27;;;0.27;;
11241;SDS011;5678;52.370;9.006;2022-08-21T06:33:04;0.30;;;0.30;;
11241;SDS011;5678;52.370;9.006;2022-08-21T06:35:33;0.20;;;0.20;;
11241;SDS011;5678;52.370;9.006;2022-08-21T06:38:06;0.20;;;0.20;;
11241;SDS011;5678;52.370;9.006;2022-08-21T06:40:34;0.20;;;0.20;;
11241;SDS011;5678;52.370;9.006;2022-08-21T06:43:10;0.20;;;0.20;;
11241;SDS011;5678;52.370;9.006;2022-08-21T06:45:40;0.20;;;0.20;;
11241;SDS011;5678;52.370;9.006;2022-08-21T06:48:10;0.20;;;0.20;;
11241;SDS011;5678;52.370;9.006;2022-08-21T06:50:44;0.20;;;0.20;;
11241;SDS011;5678;52.370;9.006;2022-08-21T06:53:13;0.20;;;0.20;;
11241;SDS011;5678;52.370;9.006;2022-08-21T06:55:42;0.20;;;0.20;;
11241;SDS011;5678;52.370;9.006;2022-08-21T06:58:10;0.20;;;0.20;;
11241;SDS011;5678;52.370;9.006;2022-08-21T07:00:40;0.20;;;0.20;;
11241;SDS011;5678;52.370;9.006;2022-08-21T07:03:17;0.27;;;0.27;;
11241;SDS011;5678;52.370;9.006;2022-08-21T07:05:46;0.20;;;0.20;;
11241;SDS011;5678;52.370;9.006;2022-08-21T07:08:14;0.20;;;0.20;;
11241;SDS011;5678;52.370;9.006;2022-08-21T07:10:42;0.30;;;0.30;;
11241;SDS011;5678;52.370;9.006;2022-08-21T07:13:11;0.20;;;0.20;;
11241;SDS011;5678;52.370;9.006;2022-08-21T07:15:39;0.20;;;0.20;;
11241;SDS011;5678;52.370;9.006;2022-08-21T07:18:08;0.20;;;0.20;;
11241;SDS011;5678;52.370;9.006;2022-08-21T07:20:37;0.20;;;0.20;;
11241;SDS011;5678;52.370;9.006;2022-08-21T07:23:06;0.20;;;0.20;;
11241;SDS011;5678;52.370;9.006;2022-08-21T07:25:37;0.20;;;0.20;;
11241;SDS011;5678;52.370;9.006;2022-08-21T07:28:05;0.20;;;0.20;;
11241;SDS011;5678;52.370;9.006;2022-08-21T07:30:33;0.20;;;0.20;;
11241;SDS011;5678;52.370;9.006;2022-08-21T07:33:01;0.20;;;0.20;;
11241;SDS011;5678;52.370;9.006;2022-08-21T07:35:29;0.20;;;0.20;;
11241;SDS011;5678;52.370;9.006;2022-08-21T07:37:58;0.20;;;0.20;;
11241;SDS011;5678;52.370;9.006;2022-08-21T07:40:26;0.10;;;0.10;;
11241;SDS011;5678;52.370;9.006;2022-08-21T07:42:54;0.20;;;0.20;;
11241;SDS011;5678;52.370;9.006;2022-08-21T07:45:22;0.10;;;0.10;;
11241;SDS011;5678;52.370;9.006;2022-08-21T07:47:52;0.10;;;0.10;;
11241;SDS011;5678;52.370;9.006;2022-08-21T07:50:23;0.17;;;0.17;;
11241;SDS011;5678;52.370;9.006;2022-08-21T07:52:51;0.10;;;0.10;;
11241;SDS011;5678;52.370;9.006;2022-08-21T07:55:21;0.10;;;0.10;;
11241;SDS011;5678;52.370;9.006;2022-08-21T07:57:49;0.20;;;0.20;;
11241;SDS011;5678;52.370;9.006;2022-08-21T08:00:19;0.10;;;0.10;;
11241;SDS011;5678;52.370;9.006;2022-08-21T08:02:49;0.10;;;0.10;;
11241;SDS011;5678;52.370;9.006;2022-08-21T08:05:20;0.10;;;0.10;;
11241;SDS011;5678;52.370;9.006;2022-08-21T08:07:49;0.10;;;0.10;;
11241;SDS011;5678;52.370;9.006;2022-08-21T08:10:17;0.20;;;0.20;;
11241;SDS011;5678;52.370;9.006;2022-08-21T08:12:47;0.10;;;0.10;;
11241;SDS011;5678;52.370;9.006;2022-08-21T08:15:18;0.10;;;0.10;;
11241;SDS011;5678;52.370;9.006;2022-08-21T08:17:48;0.10;;;0.10;;
11241;SDS011;5678;52.370;9.006;2022-08-21T08:20:17;0.15;;;0.15;;
11241;SDS011;5678;52.370;9.006;2022-08-21T08:22:46;0.10;;;0.10;;
11241;SDS011;5678;52.370;9.006;2022-08-21T08:25:15;0.10;;;0.10;;
11241;SDS011;5678;52.370;9.006;2022-08-21T08:27:45;0.10;;;0.10;;
11241;SDS011;5678;52.370;9.006;2022-08-21T08:30:15;0.10;;;0.10;;
11241;SDS011;5678;52.370;9.006;2022-08-21T08:32:45;0.10;;;0.10;;
11241;SDS011;5678;52.370;9.006;2022-08-21T08:35:14;0.10;;;0.10;;
11241;SDS011;5678;52.370;9.006;2022-08-21T08:37:43;0.10;;;0.10;;
11241;SDS011;5678;52.370;9.006;2022-08-21T08:40:18;0.10;;;0.10;;
11241;SDS011;5678;52.370;9.006;2022-08-21T08:42:53;0.10;;;0.10;;
11241;SDS011;5678;52.370;9.006;2022-08-21T08:45:21;0.10;;;0.10;;
11241;SDS011;5678;52.370;9.006;2022-08-21T08:47:52;0.10;;;0.10;;
11241;SDS011;5678;52.370;9.006;2022-08-21T08:50:25;0.10;;;0.10;;
11241;SDS011;5678;52.370;9.006;2022-08-21T08:53:02;0.10;;;0.10;;
11241;SDS011;5678;52.370;9.006;2022-08-21T08:55:33;0.10;;;0.10;;
11241;SDS011;5678;52.370;9.006;2022-08-21T08:58:06;0.10;;;0.10;;
11241;SDS011;5678;52.370;9.006;2022-08-21T09:00:37;0.10;;;0.10;;
11241;SDS011;5678;52.370;9.006;2022-08-21T09:03:05;0.10;;;0.10;;
11241;SDS011;5678;52.370;9.006;2022-08-21T09:05:37;0.10;;;0.10;;
11241;SDS011;5678;52.370;9.006;2022-08-21T09:08:15;0.10;;;0.10;;
11241;SDS011;5678;52.370;9.006;2022-08-21T09:10:55;0.10;;;0.10;;
11241;SDS011;5678;52.370;9.006;2022-08-21T09:13:31;0.10;;;0.10;;
11241;SDS011;5678;52.370;9.006;2022-08-21T09:16:09;0.10;;;0.10;;
11241;SDS011;5678;52.370;9.006;2022-08-21T09:18:44;0.10;;;0.10;;
11241;SDS011;5678;52.370;9.006;2022-08-21T09:21:22;0.10;;;0.10;;
11241;SDS011;5678;52.370;9.006;2022-08-21T09:23:57;0.10;;;0.10;;
11241;SDS011;5678;52.370;9.006;2022-08-21T09:26:29;0.10;;;0.10;;
11241;SDS011;5678;52.370;9.006;2022-08-21T09:29:04;0.10;;;0.10;;
11241;SDS011;5678;52.370;9.006;2022-08-21T09:31:34;0.10;;;0.10;;
11241;SDS011;5678;52.370;9.006;2022-08-21T09:34:06;0.10;;;0.10;;
11241;SDS011;5678;52.370;9.006;2022-08-21T09:36:37;0.30;;;0.30;;
11241;SDS011;5678;52.370;9.006;2022-08-21T09:39:07;0.00;;;0.00;;
11241;SDS011;5678;52.370;9.006;2022-08-21T09:41:36;0.08;;;0.08;;
11241;SDS011;5678;52.370;9.006;2022-08-21T09:44:07;0.10;;;0.10;;
11241;SDS011;5678;52.370;9.006;2022-08-21T09:46:36;0.10;;;0.10;;
11241;SDS011;5678;52.370;9.006;2022-08-21T09:49:04;0.10;;;0.10;;
11241;SDS011;5678;52.370;9.006;2022-08-21T09:51:40;0.10;;;0.10;;
11241;SDS011;5678;52.370;9.006;2022-08-21T09:54:20;0.10;;;0.10;;
11241;SDS011;5678;52.370;9.006;2022-08-21T09:56:54;0.10;;;0.10;;
11241;SDS011;5678;52.370;9.006;2022-08-21T09:59:44;0.10;;;0.10;;
11241;SDS011;5678;52.370;9.006;2022-08-21T10:02:23;0.10;;;0.10;;
11241;SDS011;5678;52.370;9.006;2022-08-21T10:04:54;0.10;;;0.10;;
11241;SDS011;5678;52.370;9.006;2022-08-21T10:07:25;0.10;;;0.10;;
11241;SDS011;5678;52.370;9.006;2022-08-21T10:09:58;0.10;;;0.10;;
11241;SDS011;5678;52.370;9.006;2022-08-21T10:12:29;0.10;;;0.10;;
11241;SDS011;5678;52.370;9.006;2022-08-21T10:15:09;0.10;;;0.10;;
11241;SDS011;5678;52.370;9.006;2022-08-21T10:17:47;0.10;;;0.10;;
11241;SDS011;5678;52.370;9.006;2022-08-21T10:20:25;0.10;;;0.10;;
11241;SDS011;5678;52.370;9.006;2022-08-21T10:23:02;0.10;;;0.10;;
11241;SDS011;5678;52.370;9.006;2022-08-21T10:25:40;0.10;;;0.10;;
11241;SDS011;5678;52.370;9.006;2022-08-21T10:28:36;0.10;;;0.10;;
11241;SDS011;5678;52.370;9.006;2022-08-21T10:31:11;0.10;;;0.10;;
11241;SDS011;5678;52.370;9.006;2022-08-21T10:33:46;0.10;;;0.10;;
11241;SDS011;5678;52.370;9.006;2022-08-21T10:36:21;0.10;;;0.10;;
11241;SDS011;5678;52.370;9.006;2022-08-21T10:38:58;0.10;;;0.10;;
11241;SDS011;5678;52.370;9.006;2022-08-21T10:42:02;0.10;;;0.10;;
11241;SDS011;5678;52.370;9.006;2022-08-21T10:44:46;0.08;;;0.08;;
11241;SDS011;5678;52.370;9.006;2022-08-21T10:47:24;0.10;;;0.10;;
11241;SDS011;5678;52.370;9.006;2022-08-21T10:50:02;0.10;;;0.10;;
11241;SDS011;5678;52.370;9.006;2022-08-21T10:52:43;0.10;;;0.10;;
11241;SDS011;5678;52.370;9.006;2022-08-21T10:55:21;0.10;;;0.10;;
11241;SDS011;5678;52.370;9.006;2022-08-21T10:57:54;0.10;;;0.10;;
11241;SDS011;5678;52.370;9.006;2022-08-21T11:00:26;0.00;;;0.00;;
11241;SDS011;5678;52.370;9.006;2022-08-21T11:03:02;0.10;;;0.10;;
11241;SDS011;5678;52.370;9.006;2022-08-21T11:05:35;0.10;;;0.10;;
11241;SDS011;5678;52.370;9.006;2022-08-21T11:08:16;0.10;;;0.10;;
11241;SDS011;5678;52.370;9.006;2022-08-21T11:10:50;0.08;;;0.08;;
11241;SDS011;5678;52.370;9.006;2022-08-21T11:13:27;0.10;;;0.10;;
11241;SDS011;5678;52.370;9.006;2022-08-21T11:16:00;0.10;;;0.10;;
11241;SDS011;5678;52.370;9.006;2022-08-21T11:18:36;0.10;;;0.10;;
11241;SDS011;5678;52.370;9.006;2022-08-21T11:21:09;0.10;;;0.10;;
11241;SDS011;5678;52.370;9.006;2022-08-21T11:23:53;0.10;;;0.10;;
11241;SDS011;5678;52.370;9.006;2022-08-21T11:26:34;0.10;;;0.10;;
11241;SDS011;5678;52.370;9.006;2022-08-21T11:29:08;0.10;;;0.10;;
11241;SDS011;5678;52.370;9.006;2022-08-21T11:31:45;0.10;;;0.10;;
11241;SDS011;5678;52.370;9.006;2022-08-21T11:34:26;0.10;;;0.10;;
11241;SDS011;5678;52.370;9.006;2022-08-21T11:37:11;0.10;;;0.10;;
11241;SDS011;5678;52.370;9.006;2022-08-21T11:39:49;0.10;;;0.10;;
11241;SDS011;5678;52.370;9.006;2022-08-21T11:42:24;0.10;;;0.10;;
11241;SDS011;5678;52.370;9.006;2022-08-21T11:45:03;0.10;;;0.10;;
11241;SDS011;5678;52.370;9.006;2022-08-21T11:47:46;0.10;;;0.10;;
11241;SDS011;5678;52.370;9.006;2022-08-21T11:50:23;0.10;;;0.10;;
11241;SDS011;5678;52.370;9.006;2022-08-21T11:53:01;0.10;;;0.10;;
11241;SDS011;5678;52.370;9.006;2022-08-21T11:55:36;0.10;;;0.10;;
11241;SDS011;5678;52.370;9.006;2022-08-21T11:58:08;0.10;;;0.10;;
11241;SDS011;5678;52.370;9.006;2022-08-21T12:00:40;0.10;;;0.10;;
11241;SDS011;5678;52.370;9.006;2022-08-21T12:03:13;0.10;;;0.10;;
11241;SDS011;5678;52.370;9.006;2022-08-21T12:05:52;0.10;;;0.10;;
11241;SDS011;5678;52.370;9.006;2022-08-21T12:08:29;0.10;;;0.10;;
11241;SDS011;5678;52.370;9.006;2022-08-21T12:11:00;0.10;;;0.10;;
11241;SDS011;5678;52.370;9.006;2022-08-21T12:13:31;0.10;;;0.10;;
11241;SDS011;5678;52.370;9.006;2022-08-21T12:16:08;0.10;;;0.10;;
11241;SDS011;5678;52.370;9.006;2022-08-21T12:18:39;0.10;;;0.10;;
11241;SDS011;5678;52.370;9.006;2022-08-21T12:21:23;0.10;;;0.10;;
11241;SDS011;5678;52.370;9.006;2022-08-21T12:24:03;0.10;;;0.10;;
11241;SDS011;5678;52.370;9.006;2022-08-21T12:26:47;0.10;;;0.10;;
11241;SDS011;5678;52.370;9.006;2022-08-21T12:29:21;0.10;;;0.10;;
11241;SDS011;5678;52.370;9.006;2022-08-21T12:31:54;0.10;;;0.10;;
11241;SDS011;5678;52.370;9.006;2022-08-21T12:34:25;0.10;;;0.10;;
11241;SDS011;5678;52.370;9.006;2022-08-21T12:37:02;0.10;;;0.10;;
11241;SDS011;5678;52.370;9.006;2022-08-21T12:39:33;0.10;;;0.10;;
11241;SDS011;5678;52.370;9.006;2022-08-21T12:42:06;0.10;;;0.10;;
11241;SDS011;5678;52.370;9.006;2022-08-21T12:44:43;0.10;;;0.10;;
11241;SDS011;5678;52.370;9.006;2022-08-21T12:47:17;0.10;;;0.10;;
11241;SDS011;5678;52.370;9.006;2022-08-21T12:49:52;0.10;;;0.10;;
11241;SDS011;5678;52.370;9.006;2022-08-21T12:52:30;0.10;;;0.10;;
11241;SDS011;5678;52.370;9.006;2022-08-21T12:55:05;0.10;;;0.10;;
11241;SDS011;5678;52.370;9.006;2022-08-21T12:57:35;0.10;;;0.10;;
11241;SDS011;5678;52.370;9.006;2022-08-21T13:00:05;0.10;;;0.10;;
11241;SDS011;5678;52.370;9.006;2022-08-21T13:02:37;0.10;;;0.10;;
11241;SDS011;5678;52.370;9.006;2022-08-21T13:05:12;0.10;;;0.10;;
11241;SDS011;5678;52.370;9.006;2022-08-21T13:07:45;0.05;;;0.05;;
11241;SDS011;5678;52.370;9.006;2022-08-21T13:10:16;0.10;;;0.10;;
11241;SDS011;5678;52.370;9.006;2022-08-21T13:12:49;0.17;;;0.17;;
11241;SDS011;5678;52.370;9.006;2022-08-21T13:15:22;0.10;;;0.10;;
11241;SDS011;5678;52.370;9.006;2022-08-21T13:17:59;0.10;;;0.10;;
11241;SDS011;5678;52.370;9.006;2022-08-21T13:20:30;0.10;;;0.10;;
11241;SDS011;5678;52.370;9.006;2022-08-21T13:23:02;0.10;;;0.10;;
11241;SDS011;5678;52.370;9.006;2022-08-21T13:25:35;0.03;;;0.03;;
11241;SDS011;5678;52.370;9.006;2022-08-21T13:28:05;0.10;;;0.10;;
11241;SDS011;5678;52.370;9.006;2022-08-21T13:30:38;0.10;;;0.10;;
11241;SDS011;5678;52.370;9.006;2022-08-21T13:33:08;0.10;;;0.10;;
11241;SDS011;5678;52.370;9.006;2022-08-21T13:35:45;0.10;;;0.10;;
11241;SDS011;5678;52.370;9.006;2022-08-21T13:38:17;0.10;;;0.10;;
11241;SDS011;5678;52.370;9.006;2022-08-21T13:40:53;0.10;;;0.10;;
11241;SDS011;5678;52.370;9.006;2022-08-21T13:43:25;0.10;;;0.10;;
11241;SDS011;5678;52.370;9.006;2022-08-21T13:45:55;0.10;;;0.10;;
11241;SDS011;5678;52.370;9.006;2022-08-21T13:48:26;0.10;;;0.10;;
11241;SDS011;5678;52.370;9.006;2022-08-21T13:50:57;0.10;;;0.10;;
11241;SDS011;5678;52.370;9.006;2022-08-21T13:53:29;0.10;;;0.10;;
11241;SDS011;5678;52.370;9.006;2022-08-21T13:56:01;0.10;;;0.10;;
11241;SDS011;5678;52.370;9.006;2022-08-21T13:58:33;0.10;;;0.10;;
11241;SDS011;5678;52.370;9.006;2022-08-21T14:01:16;0.10;;;0.10;;
11241;SDS011;5678;52.370;9.006;2022-08-21T14:03:49;0.10;;;0.10;;
11241;SDS011;5678;52.370;9.006;2022-08-21T14:06:21;0.10;;;0.10;;
11241;SDS011;5678;52.370;9.006;2022-08-21T14:08:53;0.10;;;0.10;;
11241;SDS011;5678;52.370;9.006;2022-08-21T14:11:25;0.10;;;0.10;;
11241;SDS011;5678;52.370;9.006;2022-08-21T14:13:56;0.10;;;0.10;;
11241;SDS011;5678;52.370;9.006;2022-08-21T14:16:28;0.10;;;0.10;;
11241;SDS011;5678;52.370;9.006;2022-08-21T14:19:09;0.00;;;0.00;;
11241;SDS011;5678;52.370;9.006;2022-08-21T14:21:44;0.10;;;0.10;;
11241;SDS011;5678;52.370;9.006;2022-08-21T14:24:24;0.10;;;0.10;;
11241;SDS011;5678;52.370;9.006;2022-08-21T14:26:54;0.10;;;0.10;;
11241;SDS011;5678;52.370;9.006;2022-08-21T14:29:24;0.10;;;0.10;;
11241;SDS011;5678;52.370;9.006;2022-08-21T14:31:59;0.10;;;0.10;;
11241;SDS011;5678;52.370;9.006;2022-08-21T14:34:50;0.10;;;0.10;;
11241;SDS011;5678;52.370;9.006;2022-08-21T14:37:20;0.10;;;0.10;;
11241;SDS011;5678;52.370;9.006;2022-08-21T14:39:49;0.10;;;0.10;;
11241;SDS011;5678;52.370;9.006;2022-08-21T14:42:17;0.00;;;0.00;;
11241;SDS011;5678;52.370;9.006;2022-08-21T14:44:45;0.03;;;0.03;;
11241;SDS011;5678;52.370;9.006;2022-08-21T14:47:14;0.10;;;0.10;;
11241;SDS011;5678;52.370;9.006;2022-08-21T14:49:42;0.10;;;0.10;;
11241;SDS011;5678;52.370;9.006;2022-08-21T14:52:10;0.10;;;0.10;;
11241;SDS011;5678;52.370;9.006;2022-08-21T14:54:38;0.10;;;0.10;;
11241;SDS011;5678;52.370;9.006;2022-08-21T14:57:07;0.10;;;0.10;;
11241;SDS011;5678;52.370;9.006;2022-08-21T14:59:38;0.10;;;0.10;;
11241;SDS011;5678;52.370;9.006;2022-08-21T15:02:07;0.10;;;0.10;;
11241;SDS011;5678;52.370;9.006;2022-08-21T15:04:36;0.10;;;0.10;;
11241;SDS011;5678;52.370;9.006;2022-08-21T15:07:04;0.10;;;0.10;;
11241;SDS011;5678;52.370;9.006;2022-08-21T15:09:32;0.10;;;0.10;;
11241;SDS011;5678;52.370;9.006;2022-08-21T15:12:00;0.10;;;0.10;;
11241;SDS011;5678;52.370;9.006;2022-08-21T15:14:32;0.10;;;0.10;;
11241;SDS011;5678;52.370;9.006;2022-08-21T15:17:03;0.10;;;0.10;;
11241;SDS011;5678;52.370;9.006;2022-08-21T15:19:32;0.10;;;0.10;;
11241;SDS011;5678;52.370;9.006;2022-08-21T15:22:00;0.10;;;0.10;;
11241;SDS011;5678;52.370;9.006;2022-08-21T15:24:29;0.10;;;0.10;;
11241;SDS011;5678;52.370;9.006;2022-08-21T15:26:58;0.10;;;0.10;;